Irini — SV8615 — position and weather

sailwx.info

Track history (hours):
 
Tides and Currents Weather Stations Pressure Air Temp Water Temp Dewpoint Dewpoint Depression Visibility Wind Speed Wind Dir Waves Ship Positions

Irini

Last reported at 2018-May-03 02:24 UTC. Time now 2018-Jun-19 21:58 UTC.
Position N 40°00' E 023°45'.
Warning: this ship's position is 47 days out of date.

Length 18 m; draft 2 m.

Type: Fishing. MMSI: 237996000.

Date/timePositionNaut miles runAvg speedWind from/ knotsBaromVisibWave heightAir tempDewpointWater temp
2018-May-03 02:24N 40°00' E 023°45'4 9.4
2018-May-03 01:58N 39°58' E 023°49'18 7.5
2018-May-02 23:31N 40°02' E 024°13'9 9.1
2018-May-02 22:30N 40°07' E 024°23'4 8.8
2018-May-02 22:00N 40°11' E 024°26'510.5
2018-May-02 21:30N 40°16' E 024°24'510.3
2018-May-02 21:00N 40°21' E 024°23'510.0
2018-May-02 20:30N 40°26' E 024°22'610.2
2018-May-02 19:55N 40°32' E 024°22'510.0
2018-May-02 19:28N 40°36' E 024°21'4 9.8
2018-May-02 19:00N 40°41' E 024°21'2 3.6
2018-May-02 18:30N 40°43' E 024°21'0 0.3
2018-May-02 18:00N 40°42' E 024°21'0 0.7
2018-May-02 17:30N 40°42' E 024°21'2 4.9
2018-May-02 17:00N 40°45' E 024°21'4 7.8
2018-May-02 16:30N 40°49' E 024°21'3 4.9
2018-May-02 15:59N 40°51' E 024°19'0 0.0
2018-May-02 15:29N 40°51' E 024°19'0 0.0
2018-May-02 14:59N 40°51' E 024°19'0 0.0
2018-May-02 14:29N 40°51' E 024°19'0 0.0
2018-May-02 13:59N 40°51' E 024°19'0 0.0
2018-May-02 12:59N 40°51' E 024°19'0 0.0
2018-May-02 12:23N 40°51' E 024°19'0 0.0
2018-May-02 11:59N 40°51' E 024°19'0 0.0
2018-May-02 11:26N 40°51' E 024°19'0 0.0
2018-May-02 10:59N 40°51' E 024°19'0 0.0
2018-May-02 10:29N 40°51' E 024°19'0 0.0
2018-May-02 09:56N 40°51' E 024°19'0 0.0
2018-May-02 09:26N 40°51' E 024°19'0 0.0
2018-May-02 08:56N 40°51' E 024°19'0 0.0
2018-May-02 08:26N 40°51' E 024°19'0 0.0
2018-May-02 07:59N 40°51' E 024°19'0 0.0
2018-May-02 07:29N 40°51' E 024°19'0 0.0
2018-May-02 06:59N 40°51' E 024°19'0 0.0
2018-May-02 06:29N 40°51' E 024°19'0 0.0
2018-May-02 05:59N 40°51' E 024°19'0 0.0
2018-May-02 05:29N 40°51' E 024°19'0 0.0
2018-May-02 04:59N 40°51' E 024°19'0 0.0
2018-May-02 04:17N 40°51' E 024°19'0 0.0
2018-May-02 03:59N 40°51' E 024°19'0 0.0
2018-May-02 03:29N 40°51' E 024°19'0 0.0
2018-May-02 02:59N 40°51' E 024°19'1 3.0
2018-May-02 02:30N 40°50' E 024°20'4 8.3
2018-May-02 02:00N 40°46' E 024°21'3 6.8
2018-May-02 01:30N 40°42' E 024°21'0 0.4
2018-May-02 01:00N 40°43' E 024°21'0 0.2
2018-May-02 00:30N 40°43' E 024°21'0 0.6
2018-May-01 23:59N 40°42' E 024°20'0 0.0
2018-May-01 23:29N 40°42' E 024°20'0 0.0
2018-May-01 22:59N 40°42' E 024°20'0 0.0
2018-May-01 22:29N 40°42' E 024°20'0 0.0
2018-May-01 21:59N 40°42' E 024°20'0 0.0
2018-May-01 21:23N 40°42' E 024°20'0 0.0
2018-May-01 20:50N 40°42' E 024°20'0 0.0
2018-May-01 20:17N 40°42' E 024°20'0 0.0
2018-May-01 19:59N 40°42' E 024°20'0 0.0
2018-May-01 19:29N 40°42' E 024°20'0 0.2
2018-May-01 19:01N 40°42' E 024°20'0 0.7
2018-May-01 18:30N 40°42' E 024°21'1 1.4
2018-May-01 17:59N 40°42' E 024°22'  
2018-Apr-27 19:04N 40°47' E 024°23'0 2.4
2018-Apr-27 19:00N 40°47' E 024°23'0 0.9
2018-Apr-27 18:29N 40°47' E 024°23'0 0.7
2018-Apr-27 17:58N 40°47' E 024°23'0 0.1
2018-Apr-27 17:28N 40°47' E 024°23'0 0.3
2018-Apr-27 17:00N 40°47' E 024°23'5 1.4
2018-Apr-27 13:06N 40°51' E 024°19'0 0.0
2018-Apr-27 13:00N 40°51' E 024°19'0 0.0
2018-Apr-27 12:30N 40°51' E 024°19'0 0.0
2018-Apr-27 12:00N 40°51' E 024°19'0 0.0
2018-Apr-27 11:30N 40°51' E 024°19'0 0.0
2018-Apr-27 11:00N 40°51' E 024°19'0 0.0
2018-Apr-27 10:30N 40°51' E 024°19'0 0.0
2018-Apr-27 10:00N 40°51' E 024°19'0 0.0
2018-Apr-27 09:30N 40°51' E 024°19'0 0.0
2018-Apr-27 09:00N 40°51' E 024°19'0 0.0
2018-Apr-27 08:30N 40°51' E 024°19'5 0.1
2018-Apr-25 22:14N 40°48' E 024°24'0 0.0
2018-Apr-25 21:59N 40°48' E 024°24'0 0.0
2018-Apr-25 21:29N 40°48' E 024°24'0 0.0
2018-Apr-25 20:59N 40°48' E 024°24'0 0.0
2018-Apr-25 20:26N 40°48' E 024°24'0 0.0
2018-Apr-25 19:56N 40°48' E 024°24'0 0.0
2018-Apr-25 19:20N 40°48' E 024°24'1 0.0
2018-Apr-23 17:13N 40°47' E 024°24'1 3.5
2018-Apr-23 17:00N 40°48' E 024°23'  
Track history (hours):
 
Tides and Currents Weather Stations Pressure Air Temp Water Temp Dewpoint Dewpoint Depression Visibility Wind Speed Wind Dir Waves Ship Positions

Irini

Last reported at 2018-May-03 02:24 UTC. Time now 2018-Jun-19 21:58 UTC.
Position N 40°00' E 023°45'.
Warning: this ship's position is 47 days out of date.

Length 18 m; draft 2 m.

Type: Fishing. MMSI: 237996000.

Date/timePositionNaut miles runAvg speedWind from/ knotsBaromVisibWave heightAir tempDewpointWater temp
2018-May-03 02:24N 40°00' E 023°45'4 9.4
2018-May-03 01:58N 39°58' E 023°49'18 7.5
2018-May-02 23:31N 40°02' E 024°13'9 9.1
2018-May-02 22:30N 40°07' E 024°23'4 8.8
2018-May-02 22:00N 40°11' E 024°26'510.5
2018-May-02 21:30N 40°16' E 024°24'510.3
2018-May-02 21:00N 40°21' E 024°23'510.0
2018-May-02 20:30N 40°26' E 024°22'610.2
2018-May-02 19:55N 40°32' E 024°22'510.0
2018-May-02 19:28N 40°36' E 024°21'4 9.8
2018-May-02 19:00N 40°41' E 024°21'2 3.6
2018-May-02 18:30N 40°43' E 024°21'0 0.3
2018-May-02 18:00N 40°42' E 024°21'0 0.7
2018-May-02 17:30N 40°42' E 024°21'2 4.9
2018-May-02 17:00N 40°45' E 024°21'4 7.8
2018-May-02 16:30N 40°49' E 024°21'3 4.9
2018-May-02 15:59N 40°51' E 024°19'0 0.0
2018-May-02 15:29N 40°51' E 024°19'0 0.0
2018-May-02 14:59N 40°51' E 024°19'0 0.0
2018-May-02 14:29N 40°51' E 024°19'0 0.0
2018-May-02 13:59N 40°51' E 024°19'0 0.0
2018-May-02 12:59N 40°51' E 024°19'0 0.0
2018-May-02 12:23N 40°51' E 024°19'0 0.0
2018-May-02 11:59N 40°51' E 024°19'0 0.0
2018-May-02 11:26N 40°51' E 024°19'0 0.0
2018-May-02 10:59N 40°51' E 024°19'0 0.0
2018-May-02 10:29N 40°51' E 024°19'0 0.0
2018-May-02 09:56N 40°51' E 024°19'0 0.0
2018-May-02 09:26N 40°51' E 024°19'0 0.0
2018-May-02 08:56N 40°51' E 024°19'0 0.0
2018-May-02 08:26N 40°51' E 024°19'0 0.0
2018-May-02 07:59N 40°51' E 024°19'0 0.0
2018-May-02 07:29N 40°51' E 024°19'0 0.0
2018-May-02 06:59N 40°51' E 024°19'0 0.0
2018-May-02 06:29N 40°51' E 024°19'0 0.0
2018-May-02 05:59N 40°51' E 024°19'0 0.0
2018-May-02 05:29N 40°51' E 024°19'0 0.0
2018-May-02 04:59N 40°51' E 024°19'0 0.0
2018-May-02 04:17N 40°51' E 024°19'0 0.0
2018-May-02 03:59N 40°51' E 024°19'0 0.0
2018-May-02 03:29N 40°51' E 024°19'0 0.0
2018-May-02 02:59N 40°51' E 024°19'1 3.0
2018-May-02 02:30N 40°50' E 024°20'4 8.3
2018-May-02 02:00N 40°46' E 024°21'3 6.8
2018-May-02 01:30N 40°42' E 024°21'0 0.4
2018-May-02 01:00N 40°43' E 024°21'0 0.2
2018-May-02 00:30N 40°43' E 024°21'0 0.6
2018-May-01 23:59N 40°42' E 024°20'0 0.0
2018-May-01 23:29N 40°42' E 024°20'0 0.0
2018-May-01 22:59N 40°42' E 024°20'0 0.0
2018-May-01 22:29N 40°42' E 024°20'0 0.0
2018-May-01 21:59N 40°42' E 024°20'0 0.0
2018-May-01 21:23N 40°42' E 024°20'0 0.0
2018-May-01 20:50N 40°42' E 024°20'0 0.0
2018-May-01 20:17N 40°42' E 024°20'0 0.0
2018-May-01 19:59N 40°42' E 024°20'0 0.0
2018-May-01 19:29N 40°42' E 024°20'0 0.2
2018-May-01 19:01N 40°42' E 024°20'0 0.7
2018-May-01 18:30N 40°42' E 024°21'1 1.4
2018-May-01 17:59N 40°42' E 024°22'  
2018-Apr-27 19:04N 40°47' E 024°23'0 2.4
2018-Apr-27 19:00N 40°47' E 024°23'0 0.9
2018-Apr-27 18:29N 40°47' E 024°23'0 0.7
2018-Apr-27 17:58N 40°47' E 024°23'0 0.1
2018-Apr-27 17:28N 40°47' E 024°23'0 0.3
2018-Apr-27 17:00N 40°47' E 024°23'5 1.4
2018-Apr-27 13:06N 40°51' E 024°19'0 0.0
2018-Apr-27 13:00N 40°51' E 024°19'0 0.0
2018-Apr-27 12:30N 40°51' E 024°19'0 0.0
2018-Apr-27 12:00N 40°51' E 024°19'0 0.0
2018-Apr-27 11:30N 40°51' E 024°19'0 0.0
2018-Apr-27 11:00N 40°51' E 024°19'0 0.0
2018-Apr-27 10:30N 40°51' E 024°19'0 0.0
2018-Apr-27 10:00N 40°51' E 024°19'0 0.0
2018-Apr-27 09:30N 40°51' E 024°19'0 0.0
2018-Apr-27 09:00N 40°51' E 024°19'0 0.0
2018-Apr-27 08:30N 40°51' E 024°19'5 0.1
2018-Apr-25 22:14N 40°48' E 024°24'0 0.0
2018-Apr-25 21:59N 40°48' E 024°24'0 0.0
2018-Apr-25 21:29N 40°48' E 024°24'0 0.0
2018-Apr-25 20:59N 40°48' E 024°24'0 0.0
2018-Apr-25 20:26N 40°48' E 024°24'0 0.0
2018-Apr-25 19:56N 40°48' E 024°24'0 0.0
2018-Apr-25 19:20N 40°48' E 024°24'1 0.0
2018-Apr-23 17:13N 40°47' E 024°24'1 3.5
2018-Apr-23 17:00N 40°48' E 024°23'  

Dump ship's entire track history